sensor_id;sensor_type;location;lat;lon;timestamp;P1;durP1;ratioP1;P2;durP2;ratioP2
3261;SDS011;1643;47.746;9.000;2023-06-10T00:01:36;5.23;;;4.77;;
3261;SDS011;1643;47.746;9.000;2023-06-10T00:04:02;5.00;;;4.60;;
3261;SDS011;1643;47.746;9.000;2023-06-10T00:06:29;4.73;;;4.33;;
3261;SDS011;1643;47.746;9.000;2023-06-10T00:09:04;5.87;;;5.37;;
3261;SDS011;1643;47.746;9.000;2023-06-10T00:11:31;5.40;;;4.90;;
3261;SDS011;1643;47.746;9.000;2023-06-10T00:13:57;5.17;;;4.67;;
3261;SDS011;1643;47.746;9.000;2023-06-10T00:16:23;5.47;;;4.90;;
3261;SDS011;1643;47.746;9.000;2023-06-10T00:18:50;5.40;;;4.97;;
3261;SDS011;1643;47.746;9.000;2023-06-10T00:21:20;5.03;;;4.53;;
3261;SDS011;1643;47.746;9.000;2023-06-10T00:23:47;6.70;;;4.93;;
3261;SDS011;1643;47.746;9.000;2023-06-10T00:26:12;5.60;;;5.07;;
3261;SDS011;1643;47.746;9.000;2023-06-10T00:28:38;5.27;;;4.83;;
3261;SDS011;1643;47.746;9.000;2023-06-10T00:31:04;4.90;;;4.50;;
3261;SDS011;1643;47.746;9.000;2023-06-10T00:33:30;6.30;;;5.70;;
3261;SDS011;1643;47.746;9.000;2023-06-10T00:35:56;6.00;;;5.27;;
3261;SDS011;1643;47.746;9.000;2023-06-10T00:38:22;6.17;;;5.53;;
3261;SDS011;1643;47.746;9.000;2023-06-10T00:40:48;5.80;;;5.30;;
3261;SDS011;1643;47.746;9.000;2023-06-10T00:43:14;5.50;;;5.00;;
3261;SDS011;1643;47.746;9.000;2023-06-10T00:45:40;5.47;;;4.97;;
3261;SDS011;1643;47.746;9.000;2023-06-10T00:48:05;10.33;;;5.00;;
3261;SDS011;1643;47.746;9.000;2023-06-10T00:50:31;5.60;;;5.10;;
3261;SDS011;1643;47.746;9.000;2023-06-10T00:52:58;5.73;;;5.20;;
3261;SDS011;1643;47.746;9.000;2023-06-10T00:55:24;5.07;;;4.67;;
3261;SDS011;1643;47.746;9.000;2023-06-10T00:57:52;5.57;;;5.07;;
3261;SDS011;1643;47.746;9.000;2023-06-10T01:00:19;8.37;;;5.03;;
3261;SDS011;1643;47.746;9.000;2023-06-10T01:02:45;5.67;;;5.13;;
3261;SDS011;1643;47.746;9.000;2023-06-10T01:05:11;6.60;;;5.23;;
3261;SDS011;1643;47.746;9.000;2023-06-10T01:07:43;5.63;;;5.13;;
3261;SDS011;1643;47.746;9.000;2023-06-10T01:10:42;6.13;;;4.90;;
3261;SDS011;1643;47.746;9.000;2023-06-10T01:13:14;5.70;;;5.20;;
3261;SDS011;1643;47.746;9.000;2023-06-10T01:15:41;5.50;;;5.00;;
3261;SDS011;1643;47.746;9.000;2023-06-10T01:18:08;7.17;;;5.73;;
3261;SDS011;1643;47.746;9.000;2023-06-10T01:20:34;5.33;;;4.83;;
3261;SDS011;1643;47.746;9.000;2023-06-10T01:23:05;5.17;;;4.70;;
3261;SDS011;1643;47.746;9.000;2023-06-10T01:25:31;6.23;;;5.63;;
3261;SDS011;1643;47.746;9.000;2023-06-10T01:28:16;6.60;;;5.60;;
3261;SDS011;1643;47.746;9.000;2023-06-10T01:30:51;6.17;;;5.60;;
3261;SDS011;1643;47.746;9.000;2023-06-10T01:33:33;11.90;;;5.97;;
3261;SDS011;1643;47.746;9.000;2023-06-10T01:36:01;10.43;;;5.40;;
3261;SDS011;1643;47.746;9.000;2023-06-10T01:38:30;6.00;;;5.37;;
3261;SDS011;1643;47.746;9.000;2023-06-10T01:41:01;5.47;;;5.07;;
3261;SDS011;1643;47.746;9.000;2023-06-10T01:43:32;5.97;;;5.03;;
3261;SDS011;1643;47.746;9.000;2023-06-10T01:45:58;5.23;;;4.83;;
3261;SDS011;1643;47.746;9.000;2023-06-10T01:48:24;6.60;;;5.20;;
3261;SDS011;1643;47.746;9.000;2023-06-10T01:50:50;6.60;;;5.17;;
3261;SDS011;1643;47.746;9.000;2023-06-10T01:53:15;6.20;;;5.60;;
3261;SDS011;1643;47.746;9.000;2023-06-10T01:55:41;6.57;;;5.97;;
3261;SDS011;1643;47.746;9.000;2023-06-10T01:58:07;6.50;;;5.67;;
3261;SDS011;1643;47.746;9.000;2023-06-10T02:00:32;5.53;;;4.90;;
3261;SDS011;1643;47.746;9.000;2023-06-10T02:02:58;5.97;;;5.50;;
3261;SDS011;1643;47.746;9.000;2023-06-10T02:05:24;6.10;;;5.60;;
3261;SDS011;1643;47.746;9.000;2023-06-10T02:07:50;6.77;;;6.17;;
3261;SDS011;1643;47.746;9.000;2023-06-10T02:10:16;6.67;;;6.07;;
3261;SDS011;1643;47.746;9.000;2023-06-10T02:12:41;6.70;;;6.10;;
3261;SDS011;1643;47.746;9.000;2023-06-10T02:15:07;6.40;;;5.90;;
3261;SDS011;1643;47.746;9.000;2023-06-10T02:17:32;6.23;;;5.60;;
3261;SDS011;1643;47.746;9.000;2023-06-10T02:19:58;5.77;;;5.23;;
3261;SDS011;1643;47.746;9.000;2023-06-10T02:22:25;6.47;;;5.83;;
3261;SDS011;1643;47.746;9.000;2023-06-10T02:24:50;8.27;;;5.60;;
3261;SDS011;1643;47.746;9.000;2023-06-10T02:27:16;6.97;;;6.27;;
3261;SDS011;1643;47.746;9.000;2023-06-10T02:29:43;8.00;;;6.17;;
3261;SDS011;1643;47.746;9.000;2023-06-10T02:32:09;9.13;;;5.83;;
3261;SDS011;1643;47.746;9.000;2023-06-10T02:34:35;7.70;;;6.83;;
3261;SDS011;1643;47.746;9.000;2023-06-10T02:37:01;5.43;;;5.03;;
3261;SDS011;1643;47.746;9.000;2023-06-10T02:39:27;7.33;;;6.03;;
3261;SDS011;1643;47.746;9.000;2023-06-10T02:41:53;6.30;;;5.47;;
3261;SDS011;1643;47.746;9.000;2023-06-10T02:44:19;6.27;;;5.70;;
3261;SDS011;1643;47.746;9.000;2023-06-10T02:46:45;7.73;;;6.80;;
3261;SDS011;1643;47.746;9.000;2023-06-10T02:49:11;7.30;;;6.60;;
3261;SDS011;1643;47.746;9.000;2023-06-10T02:51:37;6.57;;;5.97;;
3261;SDS011;1643;47.746;9.000;2023-06-10T02:54:03;8.70;;;7.07;;
3261;SDS011;1643;47.746;9.000;2023-06-10T02:56:29;6.93;;;6.23;;
3261;SDS011;1643;47.746;9.000;2023-06-10T02:58:55;7.13;;;6.20;;
3261;SDS011;1643;47.746;9.000;2023-06-10T03:01:21;8.70;;;6.77;;
3261;SDS011;1643;47.746;9.000;2023-06-10T03:03:46;7.40;;;6.70;;
3261;SDS011;1643;47.746;9.000;2023-06-10T03:06:12;6.73;;;6.13;;
3261;SDS011;1643;47.746;9.000;2023-06-10T03:08:39;6.40;;;5.90;;
3261;SDS011;1643;47.746;9.000;2023-06-10T03:11:05;7.03;;;6.40;;
3261;SDS011;1643;47.746;9.000;2023-06-10T03:13:31;6.67;;;6.07;;
3261;SDS011;1643;47.746;9.000;2023-06-10T03:15:57;7.20;;;6.03;;
3261;SDS011;1643;47.746;9.000;2023-06-10T03:18:25;7.07;;;6.40;;
3261;SDS011;1643;47.746;9.000;2023-06-10T03:20:52;7.23;;;6.63;;
3261;SDS011;1643;47.746;9.000;2023-06-10T03:23:18;7.00;;;6.10;;
3261;SDS011;1643;47.746;9.000;2023-06-10T03:25:44;7.30;;;6.60;;
3261;SDS011;1643;47.746;9.000;2023-06-10T03:28:10;8.73;;;6.60;;
3261;SDS011;1643;47.746;9.000;2023-06-10T03:30:36;6.83;;;6.13;;
3261;SDS011;1643;47.746;9.000;2023-06-10T03:33:02;7.33;;;6.63;;
3261;SDS011;1643;47.746;9.000;2023-06-10T03:35:27;7.33;;;6.70;;
3261;SDS011;1643;47.746;9.000;2023-06-10T03:37:54;7.83;;;7.03;;
3261;SDS011;1643;47.746;9.000;2023-06-10T03:40:20;8.07;;;7.23;;
3261;SDS011;1643;47.746;9.000;2023-06-10T03:42:45;7.10;;;6.47;;
3261;SDS011;1643;47.746;9.000;2023-06-10T03:45:11;7.00;;;6.40;;
3261;SDS011;1643;47.746;9.000;2023-06-10T03:47:37;7.00;;;6.40;;
3261;SDS011;1643;47.746;9.000;2023-06-10T03:50:05;7.13;;;6.47;;
3261;SDS011;1643;47.746;9.000;2023-06-10T03:52:33;8.00;;;7.30;;
3261;SDS011;1643;47.746;9.000;2023-06-10T03:54:59;6.53;;;6.03;;
3261;SDS011;1643;47.746;9.000;2023-06-10T03:57:25;7.07;;;6.47;;
3261;SDS011;1643;47.746;9.000;2023-06-10T03:59:51;8.53;;;6.87;;
3261;SDS011;1643;47.746;9.000;2023-06-10T04:02:17;7.20;;;6.33;;
3261;SDS011;1643;47.746;9.000;2023-06-10T04:04:42;7.57;;;6.87;;
3261;SDS011;1643;47.746;9.000;2023-06-10T04:07:08;6.33;;;5.83;;
3261;SDS011;1643;47.746;9.000;2023-06-10T04:09:34;11.43;;;5.83;;
3261;SDS011;1643;47.746;9.000;2023-06-10T04:12:01;7.27;;;6.57;;
3261;SDS011;1643;47.746;9.000;2023-06-10T04:14:27;7.90;;;7.00;;
3261;SDS011;1643;47.746;9.000;2023-06-10T04:16:53;11.43;;;6.63;;
3261;SDS011;1643;47.746;9.000;2023-06-10T04:19:19;7.77;;;6.47;;
3261;SDS011;1643;47.746;9.000;2023-06-10T04:21:46;7.97;;;7.17;;
3261;SDS011;1643;47.746;9.000;2023-06-10T04:24:12;8.07;;;7.27;;
3261;SDS011;1643;47.746;9.000;2023-06-10T04:26:37;7.43;;;6.77;;
3261;SDS011;1643;47.746;9.000;2023-06-10T04:29:03;7.87;;;7.17;;
3261;SDS011;1643;47.746;9.000;2023-06-10T04:31:29;9.50;;;7.00;;
3261;SDS011;1643;47.746;9.000;2023-06-10T04:33:55;9.63;;;7.40;;
3261;SDS011;1643;47.746;9.000;2023-06-10T04:36:20;11.20;;;7.10;;
3261;SDS011;1643;47.746;9.000;2023-06-10T04:38:46;6.97;;;6.30;;
3261;SDS011;1643;47.746;9.000;2023-06-10T04:41:12;7.33;;;6.70;;
3261;SDS011;1643;47.746;9.000;2023-06-10T04:43:38;8.00;;;7.30;;
3261;SDS011;1643;47.746;9.000;2023-06-10T04:46:03;8.60;;;6.80;;
3261;SDS011;1643;47.746;9.000;2023-06-10T04:48:29;8.00;;;7.30;;
3261;SDS011;1643;47.746;9.000;2023-06-10T04:50:55;7.43;;;6.80;;
3261;SDS011;1643;47.746;9.000;2023-06-10T04:53:21;8.17;;;7.37;;
3261;SDS011;1643;47.746;9.000;2023-06-10T04:55:47;7.77;;;7.07;;
3261;SDS011;1643;47.746;9.000;2023-06-10T04:58:13;10.33;;;7.17;;
3261;SDS011;1643;47.746;9.000;2023-06-10T05:00:40;8.33;;;6.80;;
3261;SDS011;1643;47.746;9.000;2023-06-10T05:03:06;7.80;;;7.10;;
3261;SDS011;1643;47.746;9.000;2023-06-10T05:05:32;7.83;;;7.13;;
3261;SDS011;1643;47.746;9.000;2023-06-10T05:07:57;7.03;;;6.43;;
3261;SDS011;1643;47.746;9.000;2023-06-10T05:10:23;7.27;;;6.67;;
3261;SDS011;1643;47.746;9.000;2023-06-10T05:12:48;8.33;;;7.43;;
3261;SDS011;1643;47.746;9.000;2023-06-10T05:15:14;8.93;;;8.10;;
3261;SDS011;1643;47.746;9.000;2023-06-10T05:17:40;7.27;;;6.57;;
3261;SDS011;1643;47.746;9.000;2023-06-10T05:20:06;7.67;;;6.97;;
3261;SDS011;1643;47.746;9.000;2023-06-10T05:22:32;7.00;;;6.30;;
3261;SDS011;1643;47.746;9.000;2023-06-10T05:24:57;7.50;;;6.80;;
3261;SDS011;1643;47.746;9.000;2023-06-10T05:27:23;7.17;;;6.57;;
3261;SDS011;1643;47.746;9.000;2023-06-10T05:29:49;7.57;;;6.87;;
3261;SDS011;1643;47.746;9.000;2023-06-10T05:32:16;7.83;;;6.60;;
3261;SDS011;1643;47.746;9.000;2023-06-10T05:34:42;9.50;;;7.53;;
3261;SDS011;1643;47.746;9.000;2023-06-10T05:37:08;8.10;;;7.30;;
3261;SDS011;1643;47.746;9.000;2023-06-10T05:39:35;7.30;;;6.60;;
3261;SDS011;1643;47.746;9.000;2023-06-10T05:42:03;7.17;;;6.57;;
3261;SDS011;1643;47.746;9.000;2023-06-10T05:44:31;7.97;;;6.63;;
3261;SDS011;1643;47.746;9.000;2023-06-10T05:46:57;7.23;;;6.60;;
3261;SDS011;1643;47.746;9.000;2023-06-10T05:49:22;6.70;;;6.10;;
3261;SDS011;1643;47.746;9.000;2023-06-10T05:51:48;7.00;;;6.40;;
3261;SDS011;1643;47.746;9.000;2023-06-10T05:54:14;7.70;;;6.90;;
3261;SDS011;1643;47.746;9.000;2023-06-10T05:56:39;7.53;;;6.80;;
3261;SDS011;1643;47.746;9.000;2023-06-10T05:59:05;7.70;;;7.00;;
3261;SDS011;1643;47.746;9.000;2023-06-10T06:01:31;7.07;;;6.37;;
3261;SDS011;1643;47.746;9.000;2023-06-10T06:03:56;8.83;;;7.70;;
3261;SDS011;1643;47.746;9.000;2023-06-10T06:06:22;7.30;;;6.60;;
3261;SDS011;1643;47.746;9.000;2023-06-10T06:08:48;7.20;;;6.60;;
3261;SDS011;1643;47.746;9.000;2023-06-10T06:11:14;7.30;;;6.50;;
3261;SDS011;1643;47.746;9.000;2023-06-10T06:13:40;7.77;;;6.90;;
3261;SDS011;1643;47.746;9.000;2023-06-10T06:16:07;7.23;;;6.63;;
3261;SDS011;1643;47.746;9.000;2023-06-10T06:18:32;7.17;;;6.57;;
3261;SDS011;1643;47.746;9.000;2023-06-10T06:20:59;7.23;;;6.47;;
3261;SDS011;1643;47.746;9.000;2023-06-10T06:23:25;7.37;;;6.67;;
3261;SDS011;1643;47.746;9.000;2023-06-10T06:25:50;8.13;;;7.43;;
3261;SDS011;1643;47.746;9.000;2023-06-10T06:28:16;7.50;;;6.80;;
3261;SDS011;1643;47.746;9.000;2023-06-10T06:30:43;8.00;;;7.20;;
3261;SDS011;1643;47.746;9.000;2023-06-10T06:33:09;6.80;;;6.20;;
3261;SDS011;1643;47.746;9.000;2023-06-10T06:35:35;8.23;;;7.43;;
3261;SDS011;1643;47.746;9.000;2023-06-10T06:38:03;7.23;;;6.57;;
3261;SDS011;1643;47.746;9.000;2023-06-10T06:40:29;8.67;;;7.03;;
3261;SDS011;1643;47.746;9.000;2023-06-10T06:42:55;7.50;;;6.57;;
3261;SDS011;1643;47.746;9.000;2023-06-10T06:45:20;7.17;;;6.47;;
3261;SDS011;1643;47.746;9.000;2023-06-10T06:47:46;6.87;;;6.30;;
3261;SDS011;1643;47.746;9.000;2023-06-10T06:50:12;7.13;;;6.53;;
3261;SDS011;1643;47.746;9.000;2023-06-10T06:52:37;7.30;;;6.70;;
3261;SDS011;1643;47.746;9.000;2023-06-10T06:55:03;7.30;;;6.60;;
3261;SDS011;1643;47.746;9.000;2023-06-10T06:57:29;7.80;;;7.10;;
3261;SDS011;1643;47.746;9.000;2023-06-10T06:59:55;7.00;;;6.37;;
3261;SDS011;1643;47.746;9.000;2023-06-10T07:02:20;8.10;;;7.30;;
3261;SDS011;1643;47.746;9.000;2023-06-10T07:04:46;7.90;;;7.20;;
3261;SDS011;1643;47.746;9.000;2023-06-10T07:07:14;7.97;;;6.53;;
3261;SDS011;1643;47.746;9.000;2023-06-10T07:09:40;7.23;;;6.63;;
3261;SDS011;1643;47.746;9.000;2023-06-10T07:12:06;8.30;;;7.60;;
3261;SDS011;1643;47.746;9.000;2023-06-10T07:14:32;7.50;;;6.80;;
3261;SDS011;1643;47.746;9.000;2023-06-10T07:16:58;7.47;;;6.70;;
3261;SDS011;1643;47.746;9.000;2023-06-10T07:19:23;7.00;;;6.40;;
3261;SDS011;1643;47.746;9.000;2023-06-10T07:21:49;10.30;;;7.53;;
3261;SDS011;1643;47.746;9.000;2023-06-10T07:24:15;6.87;;;6.27;;
3261;SDS011;1643;47.746;9.000;2023-06-10T07:26:40;6.10;;;5.60;;
3261;SDS011;1643;47.746;9.000;2023-06-10T07:29:06;7.80;;;7.00;;
3261;SDS011;1643;47.746;9.000;2023-06-10T07:31:32;7.27;;;6.67;;
3261;SDS011;1643;47.746;9.000;2023-06-10T07:33:57;7.97;;;6.87;;
3261;SDS011;1643;47.746;9.000;2023-06-10T07:36:23;8.50;;;7.53;;
3261;SDS011;1643;47.746;9.000;2023-06-10T07:38:48;7.40;;;6.70;;
3261;SDS011;1643;47.746;9.000;2023-06-10T07:41:14;9.37;;;6.33;;
3261;SDS011;1643;47.746;9.000;2023-06-10T07:43:42;6.63;;;6.13;;
3261;SDS011;1643;47.746;9.000;2023-06-10T07:46:08;7.60;;;6.90;;
3261;SDS011;1643;47.746;9.000;2023-06-10T07:48:34;8.03;;;7.23;;
3261;SDS011;1643;47.746;9.000;2023-06-10T07:50:59;7.23;;;6.63;;
3261;SDS011;1643;47.746;9.000;2023-06-10T07:53:25;7.70;;;7.00;;
3261;SDS011;1643;47.746;9.000;2023-06-10T07:55:50;7.43;;;6.73;;
3261;SDS011;1643;47.746;9.000;2023-06-10T07:58:16;7.40;;;5.80;;
3261;SDS011;1643;47.746;9.000;2023-06-10T08:00:42;8.50;;;7.57;;
3261;SDS011;1643;47.746;9.000;2023-06-10T08:03:07;7.00;;;6.30;;
3261;SDS011;1643;47.746;9.000;2023-06-10T08:05:33;7.33;;;6.73;;
3261;SDS011;1643;47.746;9.000;2023-06-10T08:07:59;7.40;;;6.70;;
3261;SDS011;1643;47.746;9.000;2023-06-10T08:10:24;6.50;;;5.80;;
3261;SDS011;1643;47.746;9.000;2023-06-10T08:12:50;7.93;;;7.17;;
3261;SDS011;1643;47.746;9.000;2023-06-10T08:15:16;7.73;;;7.03;;
3261;SDS011;1643;47.746;9.000;2023-06-10T08:17:41;7.80;;;7.10;;
3261;SDS011;1643;47.746;9.000;2023-06-10T08:20:07;7.90;;;7.20;;
3261;SDS011;1643;47.746;9.000;2023-06-10T08:22:33;8.53;;;7.83;;
3261;SDS011;1643;47.746;9.000;2023-06-10T08:24:58;8.30;;;7.50;;
3261;SDS011;1643;47.746;9.000;2023-06-10T08:27:24;9.60;;;8.60;;
3261;SDS011;1643;47.746;9.000;2023-06-10T08:29:50;8.80;;;8.00;;
3261;SDS011;1643;47.746;9.000;2023-06-10T08:32:15;8.13;;;7.37;;
3261;SDS011;1643;47.746;9.000;2023-06-10T08:34:41;9.10;;;8.30;;
3261;SDS011;1643;47.746;9.000;2023-06-10T08:37:07;8.40;;;7.70;;
3261;SDS011;1643;47.746;9.000;2023-06-10T08:39:32;8.80;;;8.00;;
3261;SDS011;1643;47.746;9.000;2023-06-10T08:44:46;11.63;;;8.87;;
3261;SDS011;1643;47.746;9.000;2023-06-10T08:47:13;9.17;;;8.20;;
3261;SDS011;1643;47.746;9.000;2023-06-10T08:49:49;11.13;;;8.23;;
3261;SDS011;1643;47.746;9.000;2023-06-10T08:52:18;9.47;;;8.53;;
3261;SDS011;1643;47.746;9.000;2023-06-10T08:54:49;9.43;;;8.53;;
3261;SDS011;1643;47.746;9.000;2023-06-10T08:57:19;10.47;;;9.57;;
3261;SDS011;1643;47.746;9.000;2023-06-10T08:59:46;8.93;;;8.17;;
3261;SDS011;1643;47.746;9.000;2023-06-10T09:02:13;9.70;;;8.70;;
3261;SDS011;1643;47.746;9.000;2023-06-10T09:04:41;10.10;;;9.10;;
3261;SDS011;1643;47.746;9.000;2023-06-10T09:07:08;9.30;;;8.10;;
3261;SDS011;1643;47.746;9.000;2023-06-10T09:09:35;9.47;;;7.80;;
3261;SDS011;1643;47.746;9.000;2023-06-10T09:12:01;9.70;;;8.80;;
3261;SDS011;1643;47.746;9.000;2023-06-10T09:14:28;8.80;;;7.90;;
3261;SDS011;1643;47.746;9.000;2023-06-10T09:16:54;11.20;;;10.10;;
3261;SDS011;1643;47.746;9.000;2023-06-10T09:19:23;9.10;;;8.30;;
3261;SDS011;1643;47.746;9.000;2023-06-10T09:21:50;9.10;;;8.33;;
3261;SDS011;1643;47.746;9.000;2023-06-10T09:24:16;9.17;;;8.37;;
3261;SDS011;1643;47.746;9.000;2023-06-10T09:26:42;9.33;;;8.43;;
3261;SDS011;1643;47.746;9.000;2023-06-10T09:29:08;8.97;;;8.10;;
3261;SDS011;1643;47.746;9.000;2023-06-10T09:31:36;9.27;;;8.37;;
3261;SDS011;1643;47.746;9.000;2023-06-10T09:36:37;9.30;;;8.40;;
3261;SDS011;1643;47.746;9.000;2023-06-10T09:39:03;8.43;;;7.73;;
3261;SDS011;1643;47.746;9.000;2023-06-10T09:41:39;9.80;;;8.90;;
3261;SDS011;1643;47.746;9.000;2023-06-10T09:44:12;9.10;;;8.30;;
3261;SDS011;1643;47.746;9.000;2023-06-10T09:46:38;9.33;;;8.53;;
3261;SDS011;1643;47.746;9.000;2023-06-10T09:49:04;9.27;;;8.47;;
3261;SDS011;1643;47.746;9.000;2023-06-10T09:51:29;8.33;;;7.63;;
3261;SDS011;1643;47.746;9.000;2023-06-10T09:53:55;9.67;;;8.77;;
3261;SDS011;1643;47.746;9.000;2023-06-10T09:56:21;9.40;;;8.50;;
3261;SDS011;1643;47.746;9.000;2023-06-10T09:58:57;9.47;;;8.60;;
3261;SDS011;1643;47.746;9.000;2023-06-10T10:01:22;9.83;;;8.93;;
3261;SDS011;1643;47.746;9.000;2023-06-10T10:03:49;8.17;;;7.10;;
3261;SDS011;1643;47.746;9.000;2023-06-10T10:06:16;8.90;;;8.10;;
3261;SDS011;1643;47.746;9.000;2023-06-10T10:08:44;9.83;;;8.93;;
3261;SDS011;1643;47.746;9.000;2023-06-10T10:11:10;9.00;;;8.20;;
3261;SDS011;1643;47.746;9.000;2023-06-10T10:13:37;9.30;;;8.30;;
3261;SDS011;1643;47.746;9.000;2023-06-10T10:16:04;9.40;;;8.30;;
3261;SDS011;1643;47.746;9.000;2023-06-10T10:18:35;9.20;;;8.40;;
3261;SDS011;1643;47.746;9.000;2023-06-10T10:21:09;8.67;;;7.87;;
3261;SDS011;1643;47.746;9.000;2023-06-10T10:26:14;8.10;;;7.40;;
3261;SDS011;1643;47.746;9.000;2023-06-10T10:28:45;9.30;;;8.40;;
3261;SDS011;1643;47.746;9.000;2023-06-10T10:31:16;8.17;;;7.37;;
3261;SDS011;1643;47.746;9.000;2023-06-10T10:33:59;8.40;;;7.60;;
3261;SDS011;1643;47.746;9.000;2023-06-10T10:36:27;8.20;;;7.27;;
3261;SDS011;1643;47.746;9.000;2023-06-10T10:38:54;8.07;;;7.20;;
3261;SDS011;1643;47.746;9.000;2023-06-10T10:41:19;7.80;;;7.00;;
3261;SDS011;1643;47.746;9.000;2023-06-10T10:43:46;7.80;;;7.00;;
3261;SDS011;1643;47.746;9.000;2023-06-10T10:46:13;8.60;;;7.80;;
3261;SDS011;1643;47.746;9.000;2023-06-10T10:48:41;8.93;;;7.30;;
3261;SDS011;1643;47.746;9.000;2023-06-10T10:51:08;8.53;;;6.77;;
3261;SDS011;1643;47.746;9.000;2023-06-10T10:53:34;10.10;;;7.80;;
3261;SDS011;1643;47.746;9.000;2023-06-10T10:58:32;8.10;;;7.30;;
3261;SDS011;1643;47.746;9.000;2023-06-10T11:00:58;8.80;;;7.20;;
3261;SDS011;1643;47.746;9.000;2023-06-10T11:03:27;7.90;;;7.20;;
3261;SDS011;1643;47.746;9.000;2023-06-10T11:05:57;6.90;;;6.17;;
3261;SDS011;1643;47.746;9.000;2023-06-10T11:10:58;7.10;;;6.40;;
3261;SDS011;1643;47.746;9.000;2023-06-10T11:13:25;8.00;;;7.30;;
3261;SDS011;1643;47.746;9.000;2023-06-10T11:15:51;8.43;;;7.13;;
3261;SDS011;1643;47.746;9.000;2023-06-10T11:31:20;5.50;;;5.00;;
3261;SDS011;1643;47.746;9.000;2023-06-10T11:33:47;5.80;;;5.30;;
3261;SDS011;1643;47.746;9.000;2023-06-10T11:36:13;6.40;;;5.80;;
3261;SDS011;1643;47.746;9.000;2023-06-10T11:38:43;6.20;;;5.43;;
3261;SDS011;1643;47.746;9.000;2023-06-10T11:41:10;5.20;;;4.80;;
3261;SDS011;1643;47.746;9.000;2023-06-10T11:43:39;5.63;;;5.13;;
3261;SDS011;1643;47.746;9.000;2023-06-10T11:46:10;6.10;;;5.10;;
3261;SDS011;1643;47.746;9.000;2023-06-10T11:48:36;7.23;;;5.43;;
3261;SDS011;1643;47.746;9.000;2023-06-10T11:51:08;6.17;;;5.57;;
3261;SDS011;1643;47.746;9.000;2023-06-10T11:53:34;5.50;;;5.00;;
3261;SDS011;1643;47.746;9.000;2023-06-10T11:56:00;5.10;;;4.43;;
3261;SDS011;1643;47.746;9.000;2023-06-10T11:58:26;5.47;;;5.03;;
3261;SDS011;1643;47.746;9.000;2023-06-10T12:00:52;5.97;;;5.47;;
3261;SDS011;1643;47.746;9.000;2023-06-10T12:03:19;5.77;;;5.37;;
3261;SDS011;1643;47.746;9.000;2023-06-10T12:06:01;6.63;;;4.90;;
3261;SDS011;1643;47.746;9.000;2023-06-10T12:08:29;5.97;;;5.47;;
3261;SDS011;1643;47.746;9.000;2023-06-10T12:10:55;5.47;;;4.97;;
3261;SDS011;1643;47.746;9.000;2023-06-10T12:13:22;6.10;;;5.23;;
3261;SDS011;1643;47.746;9.000;2023-06-10T12:15:51;4.90;;;4.50;;
3261;SDS011;1643;47.746;9.000;2023-06-10T12:18:21;5.50;;;4.93;;
3261;SDS011;1643;47.746;9.000;2023-06-10T12:20:50;5.43;;;4.93;;
3261;SDS011;1643;47.746;9.000;2023-06-10T12:23:17;5.00;;;4.50;;
3261;SDS011;1643;47.746;9.000;2023-06-10T12:25:50;7.60;;;4.83;;
3261;SDS011;1643;47.746;9.000;2023-06-10T12:28:17;5.53;;;5.03;;
3261;SDS011;1643;47.746;9.000;2023-06-10T12:30:45;4.93;;;4.57;;
3261;SDS011;1643;47.746;9.000;2023-06-10T12:33:17;4.43;;;4.03;;
3261;SDS011;1643;47.746;9.000;2023-06-10T12:35:48;5.80;;;5.30;;
3261;SDS011;1643;47.746;9.000;2023-06-10T12:38:24;5.43;;;4.93;;
3261;SDS011;1643;47.746;9.000;2023-06-10T12:40:53;4.87;;;4.47;;
3261;SDS011;1643;47.746;9.000;2023-06-10T12:43:22;5.20;;;4.70;;
3261;SDS011;1643;47.746;9.000;2023-06-10T12:45:49;6.03;;;5.43;;
3261;SDS011;1643;47.746;9.000;2023-06-10T12:48:19;4.80;;;4.40;;
3261;SDS011;1643;47.746;9.000;2023-06-10T12:50:52;6.50;;;4.83;;
3261;SDS011;1643;47.746;9.000;2023-06-10T12:53:19;5.10;;;4.60;;
3261;SDS011;1643;47.746;9.000;2023-06-10T12:55:46;4.57;;;4.17;;
3261;SDS011;1643;47.746;9.000;2023-06-10T12:58:12;4.80;;;4.40;;
3261;SDS011;1643;47.746;9.000;2023-06-10T13:00:38;4.70;;;4.37;;
3261;SDS011;1643;47.746;9.000;2023-06-10T13:03:05;4.77;;;4.43;;
3261;SDS011;1643;47.746;9.000;2023-06-10T13:05:31;5.67;;;5.17;;
3261;SDS011;1643;47.746;9.000;2023-06-10T13:07:58;5.17;;;4.73;;
3261;SDS011;1643;47.746;9.000;2023-06-10T13:10:24;4.40;;;4.10;;
3261;SDS011;1643;47.746;9.000;2023-06-10T13:12:50;4.93;;;4.53;;
3261;SDS011;1643;47.746;9.000;2023-06-10T13:15:16;5.50;;;4.57;;
3261;SDS011;1643;47.746;9.000;2023-06-10T13:17:43;5.03;;;4.53;;
3261;SDS011;1643;47.746;9.000;2023-06-10T13:20:09;4.87;;;4.37;;
3261;SDS011;1643;47.746;9.000;2023-06-10T13:22:34;4.33;;;3.90;;
3261;SDS011;1643;47.746;9.000;2023-06-10T13:25:04;4.13;;;3.73;;
3261;SDS011;1643;47.746;9.000;2023-06-10T13:27:32;4.37;;;4.07;;
3261;SDS011;1643;47.746;9.000;2023-06-10T13:29:58;4.50;;;4.10;;
3261;SDS011;1643;47.746;9.000;2023-06-10T13:32:24;4.80;;;4.40;;
3261;SDS011;1643;47.746;9.000;2023-06-10T13:34:50;4.20;;;3.90;;
3261;SDS011;1643;47.746;9.000;2023-06-10T13:37:16;4.13;;;3.83;;
3261;SDS011;1643;47.746;9.000;2023-06-10T13:39:45;3.80;;;3.50;;
3261;SDS011;1643;47.746;9.000;2023-06-10T13:42:15;3.83;;;3.63;;
3261;SDS011;1643;47.746;9.000;2023-06-10T13:44:41;4.07;;;3.70;;
3261;SDS011;1643;47.746;9.000;2023-06-10T13:47:07;4.27;;;3.37;;
3261;SDS011;1643;47.746;9.000;2023-06-10T13:49:33;4.07;;;3.77;;
3261;SDS011;1643;47.746;9.000;2023-06-10T13:51:58;3.80;;;3.50;;
3261;SDS011;1643;47.746;9.000;2023-06-10T13:54:24;3.60;;;3.30;;
3261;SDS011;1643;47.746;9.000;2023-06-10T13:56:50;3.87;;;3.20;;
3261;SDS011;1643;47.746;9.000;2023-06-10T13:59:15;3.10;;;2.90;;
3261;SDS011;1643;47.746;9.000;2023-06-10T14:01:41;4.43;;;4.03;;
3261;SDS011;1643;47.746;9.000;2023-06-10T14:04:07;3.63;;;3.40;;
3261;SDS011;1643;47.746;9.000;2023-06-10T14:06:33;4.80;;;3.70;;
3261;SDS011;1643;47.746;9.000;2023-06-10T14:09:02;3.97;;;3.67;;
3261;SDS011;1643;47.746;9.000;2023-06-10T14:11:28;3.50;;;2.97;;
3261;SDS011;1643;47.746;9.000;2023-06-10T14:13:53;3.27;;;3.07;;
3261;SDS011;1643;47.746;9.000;2023-06-10T14:16:21;3.10;;;2.90;;
3261;SDS011;1643;47.746;9.000;2023-06-10T14:18:47;4.13;;;3.30;;
3261;SDS011;1643;47.746;9.000;2023-06-10T14:21:12;3.60;;;3.30;;
3261;SDS011;1643;47.746;9.000;2023-06-10T14:23:38;3.43;;;3.20;;
3261;SDS011;1643;47.746;9.000;2023-06-10T14:26:04;3.30;;;3.00;;
3261;SDS011;1643;47.746;9.000;2023-06-10T14:28:32;3.30;;;2.90;;
3261;SDS011;1643;47.746;9.000;2023-06-10T14:30:57;3.50;;;3.30;;
3261;SDS011;1643;47.746;9.000;2023-06-10T14:33:23;3.40;;;3.10;;
3261;SDS011;1643;47.746;9.000;2023-06-10T14:35:49;5.10;;;3.57;;
3261;SDS011;1643;47.746;9.000;2023-06-10T14:38:14;5.63;;;2.93;;
3261;SDS011;1643;47.746;9.000;2023-06-10T14:40:40;3.20;;;2.80;;
3261;SDS011;1643;47.746;9.000;2023-06-10T14:43:06;3.47;;;3.27;;
3261;SDS011;1643;47.746;9.000;2023-06-10T14:45:38;5.50;;;3.27;;
3261;SDS011;1643;47.746;9.000;2023-06-10T14:48:04;2.80;;;2.60;;
3261;SDS011;1643;47.746;9.000;2023-06-10T14:50:31;2.80;;;2.60;;
3261;SDS011;1643;47.746;9.000;2023-06-10T14:52:57;2.67;;;2.47;;
3261;SDS011;1643;47.746;9.000;2023-06-10T14:55:23;2.53;;;2.43;;
3261;SDS011;1643;47.746;9.000;2023-06-10T14:57:49;4.70;;;3.30;;
3261;SDS011;1643;47.746;9.000;2023-06-10T15:00:15;3.80;;;3.37;;
3261;SDS011;1643;47.746;9.000;2023-06-10T15:02:44;2.87;;;2.67;;
3261;SDS011;1643;47.746;9.000;2023-06-10T15:05:14;2.30;;;2.20;;
3261;SDS011;1643;47.746;9.000;2023-06-10T15:07:41;3.00;;;2.80;;
3261;SDS011;1643;47.746;9.000;2023-06-10T15:10:07;4.17;;;2.83;;
3261;SDS011;1643;47.746;9.000;2023-06-10T15:12:33;4.50;;;2.80;;
3261;SDS011;1643;47.746;9.000;2023-06-10T15:14:59;2.97;;;2.77;;
3261;SDS011;1643;47.746;9.000;2023-06-10T15:17:24;2.80;;;2.60;;
3261;SDS011;1643;47.746;9.000;2023-06-10T15:19:50;2.80;;;2.60;;
3261;SDS011;1643;47.746;9.000;2023-06-10T15:22:16;2.77;;;2.57;;
3261;SDS011;1643;47.746;9.000;2023-06-10T15:24:42;3.10;;;2.50;;
3261;SDS011;1643;47.746;9.000;2023-06-10T15:27:07;3.23;;;3.03;;
3261;SDS011;1643;47.746;9.000;2023-06-10T15:29:33;2.80;;;2.60;;
3261;SDS011;1643;47.746;9.000;2023-06-10T15:31:59;2.60;;;2.40;;
3261;SDS011;1643;47.746;9.000;2023-06-10T15:34:24;5.23;;;2.70;;
3261;SDS011;1643;47.746;9.000;2023-06-10T15:36:50;2.93;;;2.73;;
3261;SDS011;1643;47.746;9.000;2023-06-10T15:39:16;2.70;;;2.50;;